Position Fahrer Laps Zeit Diff Beste Runde Fahrzeug Status Gesamt Bonuspunkte Strafpunkte
1 Richard Lindhorst 17 25:46.606 - 1:30.393 Porsche 991.2 GT3 Cup Beendet 148 0 0
2 Daniel Amhof 17 25:51.945 0:05.339 1:30.513 Porsche 991.2 GT3 Cup Beendet 142 0 0
3 Edgar Ostermann 17 25:56.754 0:10.148 1:30.612 Porsche 991.2 GT3 Cup Beendet 137 0 0
4 Goe Stettler 17 26:05.449 0:18.843 1:30.582 Porsche 991.2 GT3 Cup Beendet 133 0 0
5 René Hiddel 17 26:07.181 0:20.575 1:30.879 Porsche 991.2 GT3 Cup Beendet 130 0 0
6 Oliver Kern 17 26:09.130 0:22.524 1:31.137 Porsche 991.2 GT3 Cup Beendet 127 0 0
7 Niklas Bareuther 17 26:21.882 0:35.276 1:31.716 Porsche 991.2 GT3 Cup Beendet 125 0 0
8 Marco Küttelwesch 17 26:22.399 0:35.793 1:31.725 Porsche 991.2 GT3 Cup Beendet 123 0 0
9 Andre Unger 17 26:30.151 0:43.545 1:31.965 Porsche 991.2 GT3 Cup Beendet 121 0 0
10 Joe Dawber 17 26:31.895 0:45.289 1:31.794 Porsche 991.2 GT3 Cup Beendet 119 0 0
11 Deivid Mötz 17 26:40.478 0:53.872 1:30.588 Porsche 991.2 GT3 Cup Beendet 117 0 0
12 Christian Nesmiyan 17 26:43.331 0:56.725 1:33.345 Porsche 991.2 GT3 Cup Beendet 115 0 0
13 Mark Reinhard 17 26:47.385 1:00.779 1:31.608 Porsche 991.2 GT3 Cup Beendet 113 0 0
14 Adi Stettler 17 26:47.867 1:01.261 1:32.226 Porsche 991.2 GT3 Cup Beendet 111 0 0
15 Florian Graf 17 26:53.550 1:06.944 1:31.683 Porsche 991.2 GT3 Cup Beendet 109 0 0
16 Maurice Hoogenhout 17 27:04.275 1:17.669 1:32.295 Porsche 991.2 GT3 Cup Beendet 107 0 0
17 Flo Jäger 16 27:15.498 -1L 1:34.410 Porsche 991.2 GT3 Cup Beendet 105 0 0
18 Ricardo Hohmann 15 26:43.617 -2L 1:32.616 Porsche 991.2 GT3 Cup Beendet 103 0 0
19 Steve Hartwig 12 19:53.731 -5L 1:32.499 Porsche 991.2 GT3 Cup Beendet 0 0 0

Rennverlauf

Die schnellsten 5 pro Runde

Runde 1

Pos Rennpos Fahrer Zeit Diff
1 1 Richard Lindhorst 1:34.027 -
2 2 Daniel Amhof 1:34.773 0:00.746
3 3 Edgar Ostermann 1:36.102 0:02.075
4 4 Oliver Kern 1:37.027 0:02.1000
5 5 René Hiddel 1:37.748 0:03.721

Runde 2

Pos Rennpos Fahrer Zeit Diff
1 1 Richard Lindhorst 1:30.393 -
2 3 Edgar Ostermann 1:31.431 0:01.038
3 2 Daniel Amhof 1:31.527 0:01.134
4 7 Florian Graf 1:31.683 0:01.290
5 6 Goe Stettler 1:31.794 0:01.401

Runde 3

Pos Rennpos Fahrer Zeit Diff
1 1 Richard Lindhorst 1:30.642 -
2 2 Daniel Amhof 1:30.759 0:00.117
3 3 Edgar Ostermann 1:31.125 0:00.483
4 15 Adi Stettler 1:32.430 0:01.788
5 16 Maurice Hoogenhout 1:32.589 0:01.947

Runde 4

Pos Rennpos Fahrer Zeit Diff
1 1 Richard Lindhorst 1:30.393 -
2 2 Daniel Amhof 1:30.714 0:00.321
3 17 Deivid Mötz 1:30.966 0:00.573
4 3 Edgar Ostermann 1:31.494 0:01.101
5 4 Goe Stettler 1:32.187 0:01.794

Runde 5

Pos Rennpos Fahrer Zeit Diff
1 1 Richard Lindhorst 1:30.744 -
2 2 Daniel Amhof 1:30.774 0:00.030
3 17 Deivid Mötz 1:31.302 0:00.558
4 4 Goe Stettler 1:31.479 0:00.735
5 3 Edgar Ostermann 1:31.491 0:00.747

Runde 6

Pos Rennpos Fahrer Zeit Diff
1 1 Richard Lindhorst 1:30.681 -
2 2 Daniel Amhof 1:30.726 0:00.045
3 4 Goe Stettler 1:31.119 0:00.438
4 5 René Hiddel 1:31.365 0:00.684
5 17 Deivid Mötz 1:31.434 0:00.753

Runde 7

Pos Rennpos Fahrer Zeit Diff
1 2 Daniel Amhof 1:30.513 -
2 1 Richard Lindhorst 1:30.795 0:00.282
3 3 Edgar Ostermann 1:31.083 0:00.570
4 6 Oliver Kern 1:31.137 0:00.624
5 5 René Hiddel 1:31.305 0:00.792

Runde 8

Pos Rennpos Fahrer Zeit Diff
1 1 Richard Lindhorst 1:30.648 -
2 4 Goe Stettler 1:31.152 0:00.504
3 3 Edgar Ostermann 1:31.203 0:00.555
4 2 Daniel Amhof 1:31.677 0:01.029
5 6 Oliver Kern 1:31.719 0:01.071

Runde 9

Pos Rennpos Fahrer Zeit Diff
1 1 Richard Lindhorst 1:30.948 -
2 2 Daniel Amhof 1:31.011 0:00.063
3 15 Deivid Mötz 1:31.248 0:00.300
4 7 Niklas Bareuther 1:31.716 0:00.768
5 6 Oliver Kern 1:31.800 0:00.852

Runde 10

Pos Rennpos Fahrer Zeit Diff
1 1 Richard Lindhorst 1:30.588 -
2 15 Deivid Mötz 1:30.588 -
3 4 Goe Stettler 1:31.050 0:00.462
4 2 Daniel Amhof 1:31.086 0:00.498
5 5 René Hiddel 1:31.086 0:00.498

Runde 11

Pos Rennpos Fahrer Zeit Diff
1 1 Richard Lindhorst 1:30.477 -
2 2 Daniel Amhof 1:31.005 0:00.528
3 3 Edgar Ostermann 1:31.254 0:00.777
4 13 Deivid Mötz 1:31.779 0:01.302
5 7 Niklas Bareuther 1:32.025 0:01.548

Runde 12

Pos Rennpos Fahrer Zeit Diff
1 11 Deivid Mötz 1:30.657 -
2 1 Richard Lindhorst 1:30.738 0:00.081
3 2 Daniel Amhof 1:30.990 0:00.333
4 3 Edgar Ostermann 1:31.029 0:00.372
5 4 Goe Stettler 1:31.332 0:00.675

Runde 13

Pos Rennpos Fahrer Zeit Diff
1 4 Goe Stettler 1:30.756 -
2 3 Edgar Ostermann 1:30.849 0:00.093
3 5 René Hiddel 1:30.879 0:00.123
4 2 Daniel Amhof 1:31.011 0:00.255
5 1 Richard Lindhorst 1:31.077 0:00.321

Runde 14

Pos Rennpos Fahrer Zeit Diff
1 3 Edgar Ostermann 1:30.771 -
2 1 Richard Lindhorst 1:30.990 0:00.219
3 11 Deivid Mötz 1:31.146 0:00.375
4 4 Goe Stettler 1:31.167 0:00.396
5 6 Oliver Kern 1:31.176 0:00.405

Runde 15

Pos Rennpos Fahrer Zeit Diff
1 3 Edgar Ostermann 1:30.612 -
2 1 Richard Lindhorst 1:30.615 0:00.003
3 5 René Hiddel 1:31.026 0:00.414
4 2 Daniel Amhof 1:31.086 0:00.474
5 4 Goe Stettler 1:31.509 0:00.897

Runde 16

Pos Rennpos Fahrer Zeit Diff
1 4 Goe Stettler 1:30.582 -
2 3 Edgar Ostermann 1:30.738 0:00.156
3 1 Richard Lindhorst 1:31.044 0:00.462
4 5 René Hiddel 1:31.209 0:00.627
5 11 Deivid Mötz 1:31.344 0:00.762

Runde 17

Pos Rennpos Fahrer Zeit Diff
1 2 Daniel Amhof 1:31.164 -
2 4 Goe Stettler 1:31.176 0:00.012
3 6 Oliver Kern 1:31.179 0:00.015
4 3 Edgar Ostermann 1:31.380 0:00.216
5 5 René Hiddel 1:31.581 0:00.417

SERVER

0/24
VRL Gentlemen Drivers Cup (GDC) Trainingsserver
TrainingDaytona International Speedway - Road Course
0/103
virtualracing.org #1 GTMG1
TrainingSpa-Francorchamps
0/103
virtualracing.org #2 FNS
TrainingAtlanta Motor Speedway
0/103
virtualracing.org #3 FS
TrainingOschersleben Motorsport Park
0/103
virtualracing.org #4 LSM
TrainingLe Mans 24h
0/45
virtualracing.org #5 F1S
TrainingFormelDLM, 07. Spanien - Barcelona GP
0/45
virtualracing.org #6 TWS
TrainingVirtual Racing, VRTWS, 06. Suedafrika-Kyalami
0/103
virtualracing.org P5 ES
TrainingSilverstone
0/32
virtualracing.org#11 FAC VIP Training
TrainingAutódromo Internacional do Algarve - GP
0/60
virtualracing.org#12 VRLN VR1 VR4H Training
TrainingNordschleife - VLN
0/70
virtualracing.org#13 VRLN VR3T Training
TrainingNordschleife - VLN
0/58
virtualracing.org#14 VRLN VR2GT VR5C Training
TrainingNordschleife - VLN
0/45
virtualracing.org#16 VRLNIV Lauf 3 Qualifikation Grid 2
TrainingNordschleife - VLN Qualifikation
0/60
virtualracing.org#17 VRLNIV Lauf 3 Qualifikation Grid 1
TrainingNordschleife - VLN Qualifikation
0/30
virtualracing.org#23 VRCO Training 1
TrainingAutódromo José Carlos Pace - Grand Prix
0/16
virtualracing.org#28 VR240 Test und Einstellfahrt
TrainingAspertsham - Hargassen
0/24
virtualracing.org#30 ALT Training
TrainingKyalami - Grand Prix Circuit 1961-87